Data for 01/25/2015

Time Sea-Level Adjusted Pressure Absolute Pressure Temperature Relative Humidity Dew Point   
(mb) (inHg) (mb) (inHg) (C) (F) (%) (C) (F)
00:05 1024 30.24 853 25.19 5.4 41.6 70 0.3 32.5
00:10 1024 30.24 853 25.19 5.1 41.2 70 0.2 32.3
00:15 1024 30.24 853 25.19 4.9 40.9 72 0.4 32.7
00:20 1024 30.24 853 25.19 4.9 40.7 73 0.5 32.9
00:25 1024 30.24 853 25.19 4.8 40.6 75 0.6 33.1
00:30 1024 30.24 853 25.19 4.6 40.3 76 0.7 33.3
00:35 1024 30.24 853 25.19 4.3 39.8 78 0.8 33.4
00:40 1024 30.24 853 25.19 4.2 39.5 78 0.7 33.3
00:45 1024 30.24 853 25.19 4 39.3 80 0.8 33.5
00:50 1024 30.24 853 25.19 3.8 38.9 81 0.8 33.5
00:55 1024 30.24 853 25.19 3.6 38.5 81 0.7 33.3
01:00 1024 30.24 853 25.19 3.5 38.4 81 0.6 33.1
01:05 1024 30.24 853 25.19 3.6 38.4 80 0.5 32.9
01:10 1024 30.24 853 25.19 3.6 38.5 80 0.4 32.7
01:15 1024 30.24 853 25.19 3.6 38.5 80 0.5 32.8
01:20 1024 30.24 853 25.19 3.6 38.5 80 0.5 32.9
01:25 1024 30.24 853 25.19 3.5 38.4 80 0.4 32.7
01:30 1024 30.24 854 25.22 3.5 38.4 79 0.3 32.6
01:35 1024 30.24 854 25.22 3.4 38.2 81 0.4 32.7
01:40 1024 30.24 854 25.22 3.4 38.2 79 0.2 32.3
01:45 1024 30.24 854 25.22 3.5 38.3 80 0.4 32.7
01:50 1024 30.24 853 25.19 3.4 38 80 0.2 32.4
01:55 1024 30.24 853 25.19 3.5 38.2 79 0.1 32.2
02:00 1024 30.24 853 25.19 3.6 38.5 78 0.1 32.2
02:05 1024 30.24 853 25.19 3.5 38.3 79 0.2 32.4
02:10 1024 30.24 853 25.19 3.4 38.1 80 0.3 32.5
02:15 1024 30.24 853 25.19 3.2 37.8 80 0.2 32.3
02:20 1024 30.24 853 25.19 3.3 38 80 0.2 32.3
02:25 1024 30.24 853 25.19 3.4 38 80 0.2 32.3
02:30 1024 30.24 853 25.19 3.4 38.1 80 0.2 32.4
02:35 1024 30.24 853 25.19 3.5 38.3 79 0.2 32.4
02:40 1024 30.24 853 25.19 3.1 37.7 82 0.3 32.5
02:45 1024 30.24 853 25.19 3 37.4 81 0 32.1
02:50 1024 30.24 853 25.19 3.4 38.2 78 0 32.1
02:55 1023 30.21 853 25.19 3.7 38.7 77 0.1 32.1
03:00 1023 30.21 853 25.19 4.1 39.4 74 -0 31.9
03:05 1023 30.21 853 25.19 4.3 39.7 75 0.3 32.5
03:10 1023 30.21 853 25.19 3.9 39 76 0 32
03:15 1023 30.21 853 25.19 3.9 39 75 -0.1 31.9
03:20 1023 30.21 853 25.19 4 39.3 75 -0 32
03:25 1023 30.21 853 25.19 3.8 38.8 77 0.1 32.2
03:30 1024 30.24 853 25.19 3.7 38.7 76 -0.1 31.8
03:35 1024 30.24 853 25.19 3.9 39 76 -0 31.9
03:40 1024 30.24 853 25.19 3.8 38.8 76 -0.1 31.9
03:45 1024 30.24 853 25.19 3.8 38.8 76 -0.1 31.9
03:50 1024 30.24 853 25.19 3.8 38.9 75 -0.1 31.8
03:55 1024 30.24 853 25.19 4.1 39.4 74 -0.1 31.9
04:00 1024 30.24 853 25.19 4.2 39.6 73 -0.2 31.6
04:05 1023 30.21 853 25.19 4.4 40 72 -0.1 31.8
04:10 1023 30.21 853 25.19 4.8 40.6 71 0 32
04:15 1023 30.21 853 25.19 4.9 40.8 70 -0.2 31.7
04:20 1023 30.21 853 25.19 4.9 40.9 70 -0.1 31.8
04:25 1023 30.21 853 25.19 5 41 69 -0.2 31.6
04:30 1023 30.21 853 25.19 5.1 41.1 69 -0.2 31.7
04:35 1023 30.21 853 25.19 5.1 41.1 68 -0.3 31.5
04:40 1023 30.21 852 25.16 5.1 41.2 68 -0.3 31.5
04:45 1023 30.21 852 25.16 5.2 41.3 68 -0.3 31.4
04:50 1023 30.21 852 25.16 5.2 41.3 68 -0.3 31.4
04:55 1023 30.21 852 25.16 5 41 69 -0.3 31.5
05:00 1023 30.21 852 25.16 4.6 40.4 70 -0.4 31.2
05:05 1023 30.21 852 25.16 4.5 40 70 -0.5 31
05:10 1023 30.21 852 25.16 4.3 39.7 71 -0.6 31
05:15 1023 30.21 852 25.16 4.2 39.6 70 -0.8 30.6
05:20 1023 30.21 852 25.16 4.4 39.9 69 -0.7 30.8
05:25 1023 30.21 852 25.16 4.7 40.4 67 -0.8 30.5
05:30 1023 30.21 852 25.16 4.9 40.8 67 -0.7 30.8
05:35 1023 30.21 852 25.16 5 41 66 -0.7 30.7
05:40 1023 30.21 852 25.16 5.2 41.4 65 -0.8 30.6
05:45 1023 30.21 852 25.16 5.4 41.7 65 -0.8 30.6
05:50 1023 30.21 852 25.16 5.4 41.8 65 -0.6 30.9
05:55 1023 30.21 852 25.16 5.4 41.7 65 -0.7 30.7
06:00 1023 30.21 852 25.16 5.2 41.4 65 -0.7 30.7
06:05 1023 30.21 852 25.16 5 41 66 -0.8 30.5
06:10 1023 30.21 852 25.16 4.8 40.7 67 -0.8 30.5
06:15 1023 30.21 852 25.16 4.7 40.4 67 -1 30.2
06:20 1023 30.21 852 25.16 4.7 40.4 67 -1 30.2
06:25 1023 30.21 852 25.16 4.4 40 68 -0.9 30.3
06:30 1023 30.21 852 25.16 4.3 39.8 67 -1.2 29.9
06:35 1023 30.21 852 25.16 4.3 39.8 68 -1 30.1
06:40 1023 30.21 852 25.16 4.2 39.6 68 -1.2 29.8
06:45 1023 30.21 852 25.16 4.2 39.6 67 -1.3 29.7
06:50 1023 30.21 852 25.16 4.2 39.6 67 -1.3 29.6
06:55 1023 30.21 852 25.16 4.2 39.6 67 -1.4 29.5
07:00 1023 30.21 852 25.16 4.3 39.7 67 -1.3 29.6
07:05 1023 30.21 852 25.16 4.2 39.6 67 -1.4 29.5
07:10 1023 30.21 852 25.16 4.2 39.5 67 -1.4 29.5
07:15 1023 30.21 852 25.16 4.2 39.6 67 -1.3 29.7
07:20 1023 30.21 852 25.16 4 39.3 68 -1.4 29.5
07:25 1023 30.21 853 25.19 4.2 39.5 67 -1.4 29.5
07:30 1023 30.21 853 25.19 4.1 39.4 68 -1.3 29.7
07:35 1023 30.21 852 25.16 3.9 38.9 69 -1.4 29.6
07:40 1023 30.21 852 25.16 3.8 38.8 68 -1.5 29.3
07:45 1023 30.21 852 25.16 3.9 39 68 -1.4 29.4
07:50 1023 30.21 852 25.16 4 39.1 68 -1.5 29.4
07:55 1023 30.21 852 25.16 4.1 39.3 67 -1.4 29.4
08:00 1023 30.21 852 25.16 4.3 39.8 68 -1.2 29.9
08:05 1023 30.21 852 25.16 4.3 39.7 66 -1.4 29.4
08:10 1023 30.21 852 25.16 4.6 40.2 66 -1.2 29.8
08:15 1023 30.21 852 25.16 4.7 40.4 65 -1.4 29.4
08:20 1023 30.21 852 25.16 5 41 63 -1.4 29.4
08:25 1023 30.21 852 25.16 5.2 41.3 63 -1.2 29.8
08:30 1023 30.21 852 25.16 5.1 41.2 64 -1.2 29.8
08:35 1023 30.21 852 25.16 4.9 40.7 65 -1.2 29.8
08:40 1023 30.21 852 25.16 4.5 40 68 -0.9 30.3
08:45 1023 30.21 852 25.16 3.6 38.5 70 -1.3 29.6
08:50 1023 30.21 852 25.16 3.7 38.7 69 -1.5 29.3
08:55 1023 30.21 852 25.16 4 39.2 68 -1.3 29.6
09:00 1023 30.21 852 25.16 4 39.2 68 -1.3 29.6
09:05 1023 30.21 852 25.16 4.5 40 65 -1.5 29.4
09:10 1023 30.21 852 25.16 4.9 40.8 64 -1.4 29.4
09:15 1023 30.21 852 25.16 4.8 40.7 64 -1.3 29.7
09:20 1023 30.21 852 25.16 4.5 40.1 66 -1.2 29.8
09:25 1023 30.21 852 25.16 4.6 40.3 64 -1.6 29.1
09:30 1023 30.21 852 25.16 4.8 40.6 64 -1.4 29.5
09:35 1023 30.21 852 25.16 4.2 39.5 67 -1.3 29.6
09:40 1023 30.21 852 25.16 4.1 39.3 67 -1.6 29.2
09:45 1023 30.21 852 25.16 4.5 40.2 64 -1.8 28.8
09:50 1023 30.21 852 25.16 5 40.9 61 -1.9 28.6
09:55 1023 30.21 852 25.16 5.6 42 59 -1.7 28.9
10:00 1023 30.21 852 25.16 5.5 41.9 60 -1.6 29.1
10:05 1023 30.21 852 25.16 5.5 42 59 -1.8 28.8
10:10 1023 30.21 852 25.16 5.9 42.6 58 -1.8 28.7
10:15 1023 30.21 852 25.16 6.4 43.5 55 -1.9 28.6
10:20 1023 30.21 852 25.16 7.1 44.7 55 -1.5 29.4
10:25 1023 30.21 852 25.16 6.9 44.5 55 -1.4 29.5
10:30 1023 30.21 852 25.16 7 44.5 55 -1.4 29.5
10:35 1023 30.21 852 25.16 7 44.6 54 -1.6 29.1
10:40 1023 30.21 852 25.16 7.1 44.9 55 -1.2 29.9
10:45 1023 30.21 852 25.16 6.8 44.3 56 -1.3 29.7
10:50 1023 30.21 852 25.16 6.6 43.9 57 -1.3 29.6
10:55 1023 30.21 852 25.16 6.5 43.7 58 -1.3 29.7
11:00 1023 30.21 852 25.16 6.5 43.8 57 -1.2 29.8
11:05 1023 30.21 852 25.16 7.1 44.7 55 -1.3 29.6
11:10 1023 30.21 852 25.16 7.4 45.2 55 -1 30.1
11:15 1023 30.21 852 25.16 7.5 45.5 54 -1.3 29.7
11:20 1023 30.21 853 25.19 7.7 45.9 54 -1.1 30.1
11:25 1023 30.21 852 25.16 7.7 45.9 54 -1 30.2
11:30 1023 30.21 852 25.16 7.6 45.7 54 -1 30.3
11:35 1023 30.21 852 25.16 7.5 45.5 55 -0.9 30.4
11:40 1023 30.21 852 25.16 7.4 45.3 56 -0.9 30.4
11:45 1023 30.21 853 25.19 7.3 45.2 56 -0.9 30.3
11:50 1023 30.21 853 25.19 7.3 45.2 56 -0.9 30.3
11:55 1024 30.24 853 25.19 7.3 45.1 56 -0.9 30.3
12:00 1024 30.24 853 25.19 7.3 45.2 55 -1 30.2
12:05 1023 30.21 853 25.19 7.4 45.4 56 -0.7 30.7
12:10 1024 30.24 853 25.19 7.3 45.1 56 -0.9 30.5
12:15 1024 30.24 853 25.19 7.2 44.9 57 -0.7 30.7
12:20 1024 30.24 853 25.19 7.2 44.9 57 -0.8 30.6
12:25 1024 30.24 853 25.19 7 44.5 58 -0.6 30.9
12:30 1024 30.24 853 25.19 6.8 44.2 58 -0.8 30.5
12:35 1024 30.24 853 25.19 6.6 43.9 60 -0.6 30.9
12:40 1024 30.24 853 25.19 6.5 43.8 60 -0.7 30.8
12:45 1024 30.24 853 25.19 6.4 43.6 61 -0.6 30.9
12:50 1024 30.24 853 25.19 6.3 43.3 61 -0.7 30.8
12:55 1023 30.21 853 25.19 6.3 43.4 61 -0.7 30.7
13:00 1023 30.21 853 25.19 6.6 43.8 58 -1 30.2
13:05 1023 30.21 853 25.19 7.2 44.9 56 -0.9 30.4
13:10 1024 30.24 853 25.19 7.6 45.7 55 -0.8 30.6
13:15 1023 30.21 853 25.19 7.9 46.3 54 -0.7 30.7
13:20 1023 30.21 853 25.19 8 46.5 54 -0.7 30.7
13:25 1023 30.21 853 25.19 8 46.4 55 -0.5 31.1
13:30 1023 30.21 853 25.19 8.2 46.7 54 -0.6 30.9
13:35 1023 30.21 853 25.19 8.3 46.9 53 -0.6 30.8
13:40 1023 30.21 853 25.19 8.1 46.6 55 -0.4 31.3
13:45 1023 30.21 853 25.19 8 46.4 55 -0.4 31.4
13:50 1023 30.21 853 25.19 8 46.3 56 -0.2 31.6
13:55 1023 30.21 853 25.19 7.9 46.2 56 -0.3 31.4
14:00 1023 30.21 853 25.19 7.9 46.2 55 -0.6 31
14:05 1023 30.21 853 25.19 7.9 46.2 55 -0.6 30.9
14:10 1023 30.21 853 25.19 7.9 46.2 55 -0.6 30.9
14:15 1023 30.21 853 25.19 8 46.4 53 -0.9 30.4
14:20 1023 30.21 853 25.19 8 46.5 54 -0.8 30.6
14:25 1023 30.21 852 25.16 8.1 46.6 53 -0.8 30.6
14:30 1023 30.21 852 25.16 8.2 46.7 53 -0.8 30.6
14:35 1023 30.21 852 25.16 8.3 46.9 53 -0.7 30.7
14:40 1023 30.21 852 25.16 8.4 47.1 52 -0.9 30.4
14:45 1023 30.21 852 25.16 8.5 47.3 53 -0.6 30.9
14:50 1023 30.21 853 25.19 8.5 47.3 53 -0.6 30.9
14:55 1023 30.21 853 25.19 8.4 47 54 -0.4 31.3
15:00 1023 30.21 852 25.16 8.4 47 53 -0.6 30.8
15:05 1023 30.21 852 25.16 8.4 47.1 51 -1.1 30
15:10 1023 30.21 852 25.16 8.5 47.3 51 -1 30.1
15:15 1023 30.21 852 25.16 8.6 47.4 50 -1.4 29.6
15:20 1023 30.21 853 25.19 8.7 47.6 48 -1.5 29.2
15:25 1023 30.21 853 25.19 8.8 47.8 48 -1.6 29.2
15:30 1023 30.21 853 25.19 8.8 47.8 48 -1.5 29.3
15:35 1023 30.21 853 25.19 8.8 47.8 48 -1.6 29.1
15:40 1023 30.21 853 25.19 8.9 48 47 -1.8 28.8
15:45 1023 30.21 853 25.19 8.9 48 48 -1.6 29.1
15:50 1023 30.21 853 25.19 8.8 47.8 49 -1.3 29.6
15:55 1023 30.21 853 25.19 8.7 47.6 48 -1.8 28.8
16:00 1024 30.24 853 25.19 8.8 47.8 48 -1.7 28.9
16:05 1023 30.21 853 25.19 8.8 47.8 47 -1.7 28.9
16:10 1024 30.24 853 25.19 8.8 47.9 48 -1.6 29.2
16:15 1024 30.24 853 25.19 8.8 47.8 48 -1.5 29.3
16:20 1024 30.24 853 25.19 8.5 47.3 51 -1 30.2
16:25 1024 30.24 853 25.19 8.1 46.5 51 -1.3 29.6
16:30 1024 30.24 853 25.19 7.8 46.1 52 -1.5 29.4
16:35 1024 30.24 853 25.19 7.6 45.6 50 -2.1 28.1
16:40 1024 30.24 853 25.19 7.9 46.2 49 -2.2 28.1
16:45 1024 30.24 853 25.19 8.3 46.9 48 -2 28.4
16:50 1024 30.24 853 25.19 8.3 47 48 -2 28.4
16:55 1024 30.24 853 25.19 8.5 47.2 45 -2.8 27
17:00 1024 30.24 853 25.19 9 48.1 44 -2.6 27.4
17:05 1024 30.24 853 25.19 9.2 48.5 43 -2.8 27
17:10 1024 30.24 853 25.19 9.2 48.5 48 -1.1 30
17:15 1024 30.24 853 25.19 8.8 47.9 46 -2.2 28.1
17:20 1024 30.24 853 25.19 8.5 47.2 47 -2.2 28.1
17:25 1024 30.24 853 25.19 8.4 47 47 -2.3 27.9
17:30 1024 30.24 853 25.19 8.6 47.5 44 -2.8 26.9
17:35 1024 30.24 853 25.19 8.9 48.1 43 -2.8 26.9
17:40 1024 30.24 853 25.19 9.1 48.5 43 -2.6 27.3
17:45 1024 30.24 853 25.19 9.2 48.5 42 -3.1 26.5
17:50 1024 30.24 853 25.19 9.3 48.8 42 -2.8 26.9
17:55 1024 30.24 853 25.19 9.2 48.6 43 -2.6 27.3
18:00 1024 30.24 853 25.19 9.3 48.7 41 -3.2 26.2
18:05 1024 30.24 853 25.19 9.5 49.2 43 -2.5 27.5
18:10 1024 30.24 853 25.19 9.3 48.8 41 -3.3 26
18:15 1024 30.24 853 25.19 9.5 49 42 -2.7 27.2
18:20 1024 30.24 853 25.19 9.5 49.1 40 -3.5 25.7
18:25 1024 30.24 853 25.19 9.8 49.6 41 -3 26.7
18:30 1024 30.24 853 25.19 9.6 49.2 41 -2.9 26.7
18:35 1024 30.24 853 25.19 9.7 49.4 39 -3.7 25.3
18:40 1024 30.24 853 25.19 10.1 50.2 38 -3.6 25.5
18:45 1024 30.24 853 25.19 10.3 50.5 38 -3.4 25.8
18:50 1024 30.24 853 25.19 10.3 50.6 38 -3.4 25.8
18:55 1024 30.24 853 25.19 10.3 50.5 38 -3.5 25.7
19:00 1024 30.24 853 25.19 10.3 50.6 37 -3.7 25.4
19:05 1024 30.24 853 25.19 10.3 50.5 37 -3.8 25.1
19:10 1024 30.24 853 25.19 10.2 50.4 38 -3.6 25.6
19:15 1024 30.24 853 25.19 10.1 50.2 36 -4.1 24.7
19:20 1024 30.24 853 25.19 10.6 51.2 36 -4 24.9
19:25 1024 30.24 853 25.19 10.7 51.2 38 -3.1 26.5
19:30 1024 30.24 853 25.19 10.3 50.5 38 -3.3 26
19:35 1024 30.24 854 25.22 9.9 49.7 40 -3.1 26.3
19:40 1024 30.24 854 25.22 9.6 49.3 39 -3.5 25.6
19:45 1024 30.24 854 25.22 9.6 49.3 39 -3.7 25.4
19:50 1024 30.24 854 25.22 9.7 49.5 39 -3.5 25.7
19:55 1024 30.24 854 25.22 9.7 49.5 39 -3.5 25.8
20:00 1025 30.27 854 25.22 9.5 49.2 40 -3.3 26
20:05 1025 30.27 854 25.22 9.4 48.9 41 -3.3 26.1
20:10 1025 30.27 854 25.22 9.2 48.6 41 -3.3 26.1
20:15 1025 30.27 854 25.22 9 48.2 42 -3.3 26
20:20 1025 30.27 854 25.22 9.1 48.3 41 -3.3 26
20:25 1025 30.27 854 25.22 9.2 48.5 41 -3.4 25.8
20:30 1025 30.27 854 25.22 9.3 48.7 38 -4.3 24.2
20:35 1025 30.27 854 25.22 10 50 37 -3.8 25.1
20:40 1025 30.27 854 25.22 9.9 49.9 39 -3.2 26.3
20:45 1025 30.27 854 25.22 9.9 49.8 38 -3.6 25.5
20:50 1025 30.27 854 25.22 10.2 50.4 38 -3.4 25.9
20:55 1025 30.27 854 25.22 10.1 50.1 39 -3.1 26.5
21:00 1025 30.27 854 25.22 9.8 49.6 38 -3.8 25.2
21:05 1025 30.27 854 25.22 9.8 49.7 38 -3.7 25.4
21:10 1025 30.27 854 25.22 9.8 49.6 38 -3.7 25.3
21:15 1025 30.27 854 25.22 9.8 49.6 38 -3.8 25.2
21:20 1025 30.27 854 25.22 9.9 49.8 38 -3.7 25.4
21:25 1025 30.27 854 25.22 10.1 50.1 36 -4.3 24.3
21:30 1025 30.27 854 25.22 10.3 50.6 37 -3.8 25.2
21:35 1025 30.27 854 25.22 10.6 51.1 36 -3.7 25.3
21:40 1025 30.27 854 25.22 10.5 50.9 36 -4.1 24.7
21:45 1025 30.27 854 25.22 10.3 50.5 38 -3.4 25.8
21:50 1025 30.27 854 25.22 9.8 49.7 37 -4 24.9
21:55 1025 30.27 854 25.22 10 50 37 -4.2 24.5
22:00 1025 30.27 854 25.22 9.8 49.6 39 -3.4 25.9
22:05 1025 30.27 854 25.22 9.2 48.6 40 -3.6 25.5
22:10 1025 30.27 854 25.22 9.3 48.7 39 -4 24.7
22:15 1025 30.27 854 25.22 9.4 48.9 39 -3.9 24.9
22:20 1025 30.27 854 25.22 9.4 48.9 39 -3.9 25
22:25 1025 30.27 854 25.22 9.1 48.3 42 -3 26.6
22:30 1025 30.27 854 25.22 8.4 47.2 42 -3.8 25.2
22:35 1025 30.27 854 25.22 8.6 47.5 41 -3.9 25
22:40 1025 30.27 854 25.22 8.8 47.8 40 -3.9 24.9
22:45 1025 30.27 854 25.22 9.1 48.3 39 -4.2 24.5
22:50 1025 30.27 854 25.22 9.3 48.7 39 -3.8 25.2
22:55 1025 30.27 854 25.22 9.4 48.8 40 -3.4 25.9
23:00 1025 30.27 854 25.22 8.5 47.3 42 -3.5 25.7
23:05 1025 30.27 854 25.22 8.2 46.7 43 -3.5 25.7
23:10 1025 30.27 854 25.22 8.2 46.8 42 -4 24.8
23:15 1025 30.27 854 25.22 8.1 46.5 46 -2.8 27
23:20 1025 30.27 854 25.22 6.9 44.3 49 -3.2 26.2
23:25 1025 30.27 854 25.22 6.9 44.5 45 -4.2 24.4
23:30 1025 30.27 854 25.22 7.8 46 43 -4.1 24.7
23:35 1025 30.27 854 25.22 8.3 46.9 40 -4.3 24.2
23:40 1025 30.27 854 25.22 8.9 48.1 39 -4.3 24.3
23:45 1025 30.27 854 25.22 9.2 48.6 40 -3.8 25.2
23:50 1025 30.27 854 25.22 8.9 48.1 39 -4.1 24.6
23:55 1025 30.27 854 25.22 9 48.3 40 -3.7 25.3
24:00 1025 30.27 854 25.22 8.8 47.8 40 -4.1 24.7